createdAt,value
2018-03-19T00:02:14.082Z,-1.90
2018-03-19T00:04:41.506Z,-1.90
2018-03-19T00:07:09.711Z,-1.90
2018-03-19T00:09:37.126Z,-2.00
2018-03-19T00:12:04.541Z,-1.90
2018-03-19T00:14:32.730Z,-2.00
2018-03-19T00:17:00.906Z,-2.00
2018-03-19T00:19:29.086Z,-2.00
2018-03-19T00:21:57.277Z,-2.00
2018-03-19T00:24:25.477Z,-2.00
2018-03-19T00:26:53.653Z,-2.10
2018-03-19T00:29:22.746Z,-2.10
2018-03-19T00:31:50.250Z,-2.10
2018-03-19T00:34:17.661Z,-2.00
2018-03-19T00:36:45.083Z,-2.10
2018-03-19T00:39:12.498Z,-2.10
2018-03-19T00:41:39.918Z,-2.10
2018-03-19T00:44:07.398Z,-2.10
2018-03-19T00:46:34.840Z,-2.10
2018-03-19T00:49:03.018Z,-2.10
2018-03-19T00:51:31.211Z,-2.20
2018-03-19T00:53:59.415Z,-2.20
2018-03-19T00:56:27.590Z,-2.10
2018-03-19T00:58:55.781Z,-2.10
2018-03-19T01:01:23.205Z,-2.20
2018-03-19T01:03:50.634Z,-2.20
2018-03-19T01:06:18.033Z,-2.30
2018-03-19T01:08:45.438Z,-2.30
2018-03-19T01:11:13.623Z,-2.30
2018-03-19T01:13:41.810Z,-2.30
2018-03-19T01:16:10.028Z,-2.30
2018-03-19T01:18:37.429Z,-2.30
2018-03-19T01:21:04.841Z,-2.30
2018-03-19T01:23:32.321Z,-2.30
2018-03-19T01:25:59.734Z,-2.40
2018-03-19T01:28:27.254Z,-2.40
2018-03-19T01:30:54.670Z,-2.40
2018-03-19T01:33:22.087Z,-2.40
2018-03-19T01:35:50.290Z,-2.40
2018-03-19T01:38:17.689Z,-2.40
2018-03-19T01:40:45.114Z,-2.40
2018-03-19T01:43:12.592Z,-2.40
2018-03-19T01:45:40.010Z,-2.50
2018-03-19T01:48:07.523Z,-2.40
2018-03-19T01:50:34.966Z,-2.50
2018-03-19T01:53:03.151Z,-2.60
2018-03-19T01:55:31.321Z,-2.50
2018-03-19T01:57:58.746Z,-2.60
2018-03-19T02:00:26.172Z,-2.50
2018-03-19T02:02:54.561Z,-2.60
2018-03-19T02:05:23.672Z,-2.60
2018-03-19T02:07:51.858Z,-2.60
2018-03-19T02:10:20.029Z,-2.70
2018-03-19T02:12:47.447Z,-2.70
2018-03-19T02:15:14.909Z,-2.60
2018-03-19T02:17:42.329Z,-2.60
2018-03-19T02:20:09.747Z,-2.70
2018-03-19T02:22:37.170Z,-2.70
2018-03-19T02:25:04.586Z,-2.70
2018-03-19T02:27:32.042Z,-2.70
2018-03-19T02:29:59.445Z,-2.70
2018-03-19T02:32:26.902Z,-2.70
2018-03-19T02:34:54.305Z,-2.60
2018-03-19T02:37:21.728Z,-2.70
2018-03-19T02:39:49.144Z,-2.70
2018-03-19T02:42:16.563Z,-2.80
2018-03-19T02:44:43.975Z,-2.70
2018-03-19T02:47:11.388Z,-2.70
2018-03-19T02:49:38.854Z,-2.80
2018-03-19T02:52:06.327Z,-2.80
2018-03-19T02:54:33.754Z,-2.80
2018-03-19T02:57:01.166Z,-2.80
2018-03-19T02:59:28.618Z,-2.90
2018-03-19T03:01:56.030Z,-2.90
2018-03-19T03:04:23.463Z,-2.90
2018-03-19T03:06:50.882Z,-2.90
2018-03-19T03:09:18.296Z,-2.90
2018-03-19T03:11:45.760Z,-2.90
2018-03-19T03:14:13.203Z,-2.90
2018-03-19T03:16:40.614Z,-2.90
2018-03-19T03:19:08.050Z,-3.00
2018-03-19T03:21:36.222Z,-3.10
2018-03-19T03:24:04.448Z,-3.10
2018-03-19T03:26:31.853Z,-3.10
2018-03-19T03:28:59.271Z,-3.10
2018-03-19T03:31:26.740Z,-3.20
2018-03-19T03:33:55.871Z,-3.20
2018-03-19T03:36:23.286Z,-3.30
2018-03-19T03:38:50.695Z,-3.20
2018-03-19T03:41:18.104Z,-3.20
2018-03-19T03:43:45.534Z,-3.30
2018-03-19T03:46:13.107Z,-3.30
2018-03-19T03:48:40.556Z,-3.40
2018-03-19T03:51:09.463Z,-3.30
2018-03-19T03:53:36.872Z,-3.30
2018-03-19T03:56:04.286Z,-3.40
2018-03-19T03:58:31.761Z,-3.40
2018-03-19T04:00:59.250Z,-3.40
2018-03-19T04:03:26.652Z,-3.40
2018-03-19T04:05:54.192Z,-3.40
2018-03-19T04:08:21.594Z,-3.50
2018-03-19T04:10:49.006Z,-3.50
2018-03-19T04:13:16.482Z,-3.50
2018-03-19T04:15:43.917Z,-3.50
2018-03-19T04:18:11.426Z,-3.50
2018-03-19T04:20:38.830Z,-3.50
2018-03-19T04:23:06.244Z,-3.40
2018-03-19T04:25:33.686Z,-3.50
2018-03-19T04:28:01.912Z,-3.60
2018-03-19T04:30:29.369Z,-3.60
2018-03-19T04:32:56.773Z,-3.60
2018-03-19T04:35:24.189Z,-3.60
2018-03-19T04:37:52.439Z,-3.60
2018-03-19T04:40:19.861Z,-3.60
2018-03-19T04:42:47.274Z,-3.60
2018-03-19T04:45:14.681Z,-3.60
2018-03-19T04:47:42.936Z,-3.60
2018-03-19T04:50:10.361Z,-3.60
2018-03-19T04:52:37.837Z,-3.60
2018-03-19T04:55:05.241Z,-3.60
2018-03-19T04:57:32.668Z,-3.70
2018-03-19T05:00:00.098Z,-3.60
2018-03-19T05:02:28.288Z,-3.60
2018-03-19T05:04:57.398Z,-3.60
2018-03-19T05:07:25.633Z,-3.70
2018-03-19T05:09:53.039Z,-3.70
2018-03-19T05:12:21.270Z,-3.70
2018-03-19T05:14:49.463Z,-3.60
2018-03-19T05:17:16.889Z,-3.60
2018-03-19T05:19:45.073Z,-3.70
2018-03-19T05:22:13.298Z,-3.80
2018-03-19T05:24:41.499Z,-3.80
2018-03-19T05:27:09.058Z,-3.80
2018-03-19T05:29:36.449Z,-3.80
2018-03-19T05:32:03.890Z,-3.80
2018-03-19T05:34:31.311Z,-3.90
2018-03-19T05:36:58.827Z,-3.80
2018-03-19T05:39:27.188Z,-3.80
2018-03-19T05:41:54.684Z,-3.90
2018-03-19T05:44:22.113Z,-3.90
2018-03-19T05:46:49.634Z,-3.90
2018-03-19T05:49:17.039Z,-3.90
2018-03-19T05:51:44.467Z,-3.90
2018-03-19T05:54:11.930Z,-3.80
2018-03-19T05:56:39.362Z,-3.80
2018-03-19T05:59:06.761Z,-3.80
2018-03-19T06:01:34.178Z,-3.90
2018-03-19T06:04:01.589Z,-3.90
2018-03-19T06:06:29.004Z,-3.80
2018-03-19T06:08:56.416Z,-3.80
2018-03-19T06:11:24.618Z,-3.70
2018-03-19T06:13:52.041Z,-3.70
2018-03-19T06:16:19.447Z,-3.70
2018-03-19T06:18:46.870Z,-3.80
2018-03-19T06:21:14.286Z,-3.80
2018-03-19T06:23:41.721Z,-3.80
2018-03-19T06:26:10.661Z,-3.80
2018-03-19T06:28:38.894Z,-3.80
2018-03-19T06:31:07.814Z,-3.80
2018-03-19T06:33:35.230Z,-3.80
2018-03-19T06:36:02.655Z,-3.80
2018-03-19T06:38:30.072Z,-3.60
2018-03-19T06:40:58.175Z,-3.60
2018-03-19T06:43:26.294Z,-3.50
2018-03-19T06:45:54.509Z,-3.50
2018-03-19T06:48:21.921Z,-3.50
2018-03-19T06:50:49.337Z,-3.50
2018-03-19T06:53:16.752Z,-3.50
2018-03-19T06:55:44.167Z,-3.40
2018-03-19T06:58:12.367Z,-3.30
2018-03-19T07:00:39.828Z,-3.40
2018-03-19T07:03:07.254Z,-3.40
2018-03-19T07:05:34.667Z,-3.30
2018-03-19T07:08:02.098Z,-3.30
2018-03-19T07:10:29.622Z,-3.30
2018-03-19T07:12:57.054Z,-3.20
2018-03-19T07:15:24.583Z,-3.20
2018-03-19T07:17:52.019Z,-3.10
2018-03-19T07:20:19.486Z,-3.10
2018-03-19T07:22:46.906Z,-3.10
2018-03-19T07:25:14.314Z,-3.00
2018-03-19T07:27:41.743Z,-3.00
2018-03-19T07:30:09.282Z,-3.00
2018-03-19T07:32:36.690Z,-2.90
2018-03-19T07:35:04.121Z,-2.90
2018-03-19T07:37:31.570Z,-3.00
2018-03-19T07:39:59.817Z,-2.80
2018-03-19T07:42:27.226Z,-2.90
2018-03-19T07:44:54.699Z,-2.80
2018-03-19T07:47:22.095Z,-2.70
2018-03-19T07:49:49.506Z,-2.60
2018-03-19T07:52:17.725Z,-2.60
2018-03-19T07:54:45.149Z,-2.60
2018-03-19T07:57:13.382Z,-2.60
2018-03-19T07:59:40.811Z,-2.60
2018-03-19T08:02:08.222Z,-2.50
2018-03-19T08:04:36.394Z,-2.60
2018-03-19T08:07:03.826Z,-2.60
2018-03-19T08:09:31.250Z,-2.60
2018-03-19T08:12:00.250Z,-2.50
2018-03-19T08:14:29.375Z,-2.40
2018-03-19T08:16:56.785Z,-2.40
2018-03-19T08:19:24.203Z,-2.30
2018-03-19T08:21:52.407Z,-2.30
2018-03-19T08:24:20.581Z,-2.10
2018-03-19T08:26:59.966Z,-2.10
2018-03-19T08:29:27.430Z,-2.00
2018-03-19T08:31:54.822Z,-2.10
2018-03-19T08:34:22.237Z,-2.10
2018-03-19T08:36:49.713Z,-2.00
2018-03-19T08:39:17.129Z,-1.90
2018-03-19T08:41:44.588Z,-1.70
2018-03-19T08:44:11.957Z,-1.70
2018-03-19T08:46:39.382Z,-1.80
2018-03-19T08:49:06.794Z,-2.00
2018-03-19T08:51:34.207Z,-1.80
2018-03-19T08:54:01.686Z,-1.60
2018-03-19T08:56:30.017Z,-1.60
2018-03-19T08:58:57.446Z,-1.70
2018-03-19T09:01:24.867Z,-1.80
2018-03-19T09:03:52.371Z,-1.80
2018-03-19T09:06:19.793Z,-1.80
2018-03-19T09:08:47.238Z,-1.80
2018-03-19T09:11:14.685Z,-1.70
2018-03-19T09:13:42.098Z,-1.60
2018-03-19T09:16:09.558Z,-1.60
2018-03-19T09:18:36.986Z,-1.50
2018-03-19T09:21:04.407Z,-1.50
2018-03-19T09:23:31.829Z,-1.40
2018-03-19T09:25:59.258Z,-1.40
2018-03-19T09:28:26.649Z,-1.30
2018-03-19T09:30:54.080Z,-1.10
2018-03-19T09:33:21.516Z,-1.00
2018-03-19T09:35:48.998Z,-0.90
2018-03-19T09:38:17.149Z,-0.80
2018-03-19T09:40:44.614Z,-0.80
2018-03-19T09:43:12.035Z,-0.90
2018-03-19T09:45:39.541Z,-0.80
2018-03-19T09:48:06.972Z,-0.80
2018-03-19T09:50:34.491Z,-0.70
2018-03-19T09:53:02.671Z,-0.50
2018-03-19T09:55:30.997Z,-0.50
2018-03-19T09:57:58.414Z,-0.40
2018-03-19T10:00:26.615Z,-0.40
2018-03-19T10:02:54.042Z,-0.40
2018-03-19T10:05:21.451Z,-0.40
2018-03-19T10:07:48.858Z,-0.40
2018-03-19T10:10:16.351Z,-0.30
2018-03-19T10:12:43.707Z,-0.20
2018-03-19T10:15:11.244Z,-0.20
2018-03-19T10:17:38.690Z,-0.20
2018-03-19T10:20:06.109Z,-0.20
2018-03-19T10:22:33.627Z,-0.10
2018-03-19T10:25:02.302Z,-0.10
2018-03-19T10:27:30.539Z,0.00
2018-03-19T10:29:57.927Z,0.00
2018-03-19T10:32:25.334Z,0.00
2018-03-19T10:34:53.514Z,0.10
2018-03-19T10:37:21.707Z,0.20
2018-03-19T10:39:49.882Z,0.40
2018-03-19T10:42:18.060Z,0.40
2018-03-19T10:44:45.469Z,0.40
2018-03-19T10:47:12.897Z,0.40
2018-03-19T10:49:40.298Z,0.40
2018-03-19T10:52:07.713Z,0.50
2018-03-19T10:54:35.134Z,0.60
2018-03-19T10:57:02.594Z,0.60
2018-03-19T10:59:30.014Z,0.70
2018-03-19T11:02:03.217Z,0.80
2018-03-19T11:04:30.620Z,0.90
2018-03-19T11:07:04.356Z,1.00
2018-03-19T11:09:33.009Z,1.10
2018-03-19T11:12:00.599Z,1.00
2018-03-19T11:14:27.930Z,1.20
2018-03-19T11:16:55.341Z,1.20
2018-03-19T11:19:22.759Z,1.20
2018-03-19T11:21:50.172Z,1.30
2018-03-19T11:24:18.338Z,1.40
2018-03-19T11:26:45.772Z,1.40
2018-03-19T11:29:13.211Z,1.60
2018-03-19T11:31:40.614Z,1.60
2018-03-19T11:34:08.027Z,1.70
2018-03-19T11:36:36.210Z,1.80
2018-03-19T11:39:04.413Z,2.00
2018-03-19T11:41:33.543Z,2.20
2018-03-19T11:44:00.974Z,2.20
2018-03-19T11:46:29.154Z,2.40
2018-03-19T11:48:56.553Z,2.40
2018-03-19T11:51:23.964Z,2.50
2018-03-19T11:53:51.385Z,2.60
2018-03-19T11:56:18.801Z,3.20
2018-03-19T11:58:46.208Z,3.50
2018-03-19T12:01:14.424Z,3.90
2018-03-19T12:03:41.895Z,3.80
2018-03-19T12:06:09.320Z,4.50
2018-03-19T12:08:37.498Z,5.60
2018-03-19T12:11:04.923Z,5.60
2018-03-19T12:13:34.113Z,5.40
2018-03-19T12:16:01.580Z,5.30
2018-03-19T12:18:28.983Z,6.50
2018-03-19T12:20:56.409Z,6.40
2018-03-19T12:23:23.840Z,5.90
2018-03-19T12:25:51.234Z,5.90
2018-03-19T12:28:18.645Z,6.30
2018-03-19T12:30:46.055Z,6.60
2018-03-19T12:33:14.281Z,9.80
2018-03-19T12:35:41.696Z,9.70
2018-03-19T12:38:09.148Z,9.90
2018-03-19T12:40:36.549Z,9.30
2018-03-19T12:43:04.759Z,10.90
2018-03-19T12:45:32.191Z,10.90
2018-03-19T12:47:59.698Z,11.60
2018-03-19T12:50:27.114Z,11.10
2018-03-19T12:52:54.632Z,13.00
2018-03-19T12:55:22.076Z,15.90
2018-03-19T12:57:49.578Z,17.90
2018-03-19T13:00:17.035Z,17.70
2018-03-19T13:02:44.517Z,15.70
2018-03-19T13:05:11.984Z,16.10
2018-03-19T13:07:40.178Z,13.50
2018-03-19T13:10:07.609Z,13.50
2018-03-19T13:12:34.989Z,14.50
2018-03-19T13:15:02.408Z,15.70
2018-03-19T13:17:29.821Z,14.70
2018-03-19T13:19:58.023Z,14.60
2018-03-19T13:22:25.596Z,14.60
2018-03-19T13:24:53.780Z,13.10
2018-03-19T13:27:21.220Z,13.00
2018-03-19T13:29:48.724Z,11.70
2018-03-19T13:32:16.885Z,13.00
2018-03-19T13:34:45.084Z,10.10
2018-03-19T13:37:13.247Z,10.40
2018-03-19T13:39:40.784Z,10.40
2018-03-19T13:42:08.191Z,12.10
2018-03-19T13:44:36.382Z,11.00
2018-03-19T13:47:05.597Z,13.50
2018-03-19T13:49:33.030Z,13.50
2018-03-19T13:52:00.433Z,15.40
2018-03-19T13:54:27.926Z,15.60
2018-03-19T13:56:55.400Z,16.60
2018-03-19T13:59:22.855Z,16.40
2018-03-19T14:01:50.279Z,13.70
2018-03-19T14:04:17.692Z,12.40
2018-03-19T14:06:45.119Z,12.10
2018-03-19T14:09:12.534Z,12.20
2018-03-19T14:11:39.960Z,12.10
2018-03-19T14:14:08.185Z,12.20
2018-03-19T14:16:35.619Z,12.20
2018-03-19T14:19:03.798Z,14.40
2018-03-19T14:21:31.260Z,14.40
2018-03-19T14:23:59.377Z,12.50
2018-03-19T14:26:26.855Z,12.50
2018-03-19T14:28:54.285Z,12.70
2018-03-19T14:31:21.691Z,11.80
2018-03-19T14:33:49.099Z,11.60
2018-03-19T14:36:16.631Z,11.50
2018-03-19T14:38:44.116Z,12.50
2018-03-19T14:41:11.526Z,12.00
2018-03-19T14:43:38.937Z,11.60
2018-03-19T14:46:06.488Z,11.80
2018-03-19T14:48:34.661Z,11.60
2018-03-19T14:51:02.846Z,10.60
2018-03-19T14:53:31.034Z,10.20
2018-03-19T14:55:59.242Z,10.30
2018-03-19T14:58:26.653Z,10.20
2018-03-19T15:00:54.062Z,9.60
2018-03-19T15:03:22.238Z,10.10
2018-03-19T15:05:50.446Z,11.30
2018-03-19T15:08:17.914Z,11.20
2018-03-19T15:10:45.433Z,11.10
2018-03-19T15:13:12.981Z,10.60
2018-03-19T15:15:40.390Z,9.60
2018-03-19T15:18:07.797Z,9.20
2018-03-19T15:20:35.202Z,9.20
2018-03-19T15:23:02.618Z,10.10
2018-03-19T15:25:30.097Z,9.70
2018-03-19T15:27:57.510Z,9.80
2018-03-19T15:30:24.914Z,10.80
2018-03-19T15:32:53.102Z,12.10
2018-03-19T15:35:21.301Z,11.70
2018-03-19T15:37:48.714Z,11.60
2018-03-19T15:40:16.129Z,10.70
2018-03-19T15:42:44.308Z,9.70
2018-03-19T15:45:12.496Z,9.30
2018-03-19T15:47:40.686Z,8.80
2018-03-19T15:50:08.869Z,8.70
2018-03-19T15:52:37.960Z,8.50
2018-03-19T15:55:07.056Z,8.40
2018-03-19T15:57:34.471Z,8.40
2018-03-19T16:00:01.877Z,8.70
2018-03-19T16:02:29.299Z,8.70
2018-03-19T16:04:56.706Z,8.90
2018-03-19T16:07:24.137Z,8.90
2018-03-19T16:09:51.550Z,8.80
2018-03-19T16:12:19.020Z,8.50
2018-03-19T16:14:46.441Z,8.50
2018-03-19T16:17:13.869Z,8.80
2018-03-19T16:19:41.389Z,8.80
2018-03-19T16:22:08.784Z,8.90
2018-03-19T16:24:36.192Z,9.20
2018-03-19T16:27:04.418Z,9.80
2018-03-19T16:29:31.818Z,9.80
2018-03-19T16:31:59.221Z,9.90
2018-03-19T16:34:27.386Z,7.00
2018-03-19T16:36:54.807Z,6.90
2018-03-19T16:39:22.205Z,6.00
2018-03-19T16:41:49.634Z,5.20
2018-03-19T16:44:17.046Z,4.80
2018-03-19T16:46:44.480Z,4.60
2018-03-19T16:49:11.892Z,4.20
2018-03-19T16:51:40.081Z,4.10
2018-03-19T16:54:09.101Z,4.10
2018-03-19T16:56:38.222Z,4.00
2018-03-19T16:59:06.388Z,4.00
2018-03-19T17:01:34.617Z,3.90
2018-03-19T17:04:02.180Z,3.90
2018-03-19T17:06:29.642Z,3.80
2018-03-19T17:08:57.119Z,3.70
2018-03-19T17:11:24.587Z,3.70
2018-03-19T17:13:52.058Z,3.70
2018-03-19T17:16:19.524Z,3.70
2018-03-19T17:18:47.010Z,3.70
2018-03-19T17:21:14.426Z,3.60
2018-03-19T17:23:42.634Z,3.40
2018-03-19T17:26:10.838Z,3.30
2018-03-19T17:28:39.735Z,3.30
2018-03-19T17:31:07.152Z,3.40
2018-03-19T17:33:34.565Z,3.40
2018-03-19T17:36:01.983Z,3.40
2018-03-19T17:38:29.393Z,3.40
2018-03-19T17:40:56.810Z,3.40
2018-03-19T17:43:24.246Z,3.30
2018-03-19T17:45:51.659Z,3.20
2018-03-19T17:48:19.066Z,3.20
2018-03-19T17:50:47.237Z,3.10
2018-03-19T17:53:16.216Z,3.10
2018-03-19T17:55:43.622Z,3.00
2018-03-19T17:58:11.033Z,3.10
2018-03-19T18:00:39.453Z,3.10
2018-03-19T18:03:06.860Z,3.10
2018-03-19T18:05:34.329Z,3.00
2018-03-19T18:08:01.738Z,3.10
2018-03-19T18:10:29.144Z,3.10
2018-03-19T18:12:57.313Z,3.00
2018-03-19T18:15:25.617Z,2.90
2018-03-19T18:17:53.797Z,2.90
2018-03-19T18:20:21.974Z,2.90
2018-03-19T18:22:49.391Z,2.90
2018-03-19T18:25:16.854Z,2.80
2018-03-19T18:27:44.263Z,2.90
2018-03-19T18:30:11.676Z,2.90
2018-03-19T18:32:40.138Z,3.00
2018-03-19T18:35:07.501Z,3.00
2018-03-19T18:37:34.906Z,3.00
2018-03-19T18:40:02.381Z,2.90
2018-03-19T18:42:29.769Z,2.90
2018-03-19T18:44:57.318Z,2.90
2018-03-19T18:47:24.725Z,2.80
2018-03-19T18:49:52.130Z,2.80
2018-03-19T18:52:20.301Z,2.90
2018-03-19T18:54:47.719Z,2.80
2018-03-19T18:57:15.122Z,2.90
2018-03-19T18:59:42.584Z,2.70
2018-03-19T19:02:11.460Z,2.40
2018-03-19T19:04:38.862Z,2.40
2018-03-19T19:07:06.297Z,2.20
2018-03-19T19:09:33.768Z,2.10
2018-03-19T19:12:01.926Z,2.00
2018-03-19T19:14:30.096Z,2.10
2018-03-19T19:16:57.518Z,2.10
2018-03-19T19:19:24.930Z,2.10
2018-03-19T19:21:52.390Z,2.10
2018-03-19T19:24:19.789Z,2.10
2018-03-19T19:26:47.261Z,2.20
2018-03-19T19:29:14.662Z,2.10
2018-03-19T19:31:42.181Z,2.10
2018-03-19T19:34:09.593Z,2.00
2018-03-19T19:36:37.019Z,2.10
2018-03-19T19:39:04.449Z,2.10
2018-03-19T19:41:31.841Z,2.20
2018-03-19T19:43:59.254Z,2.10
2018-03-19T19:46:26.732Z,2.20
2018-03-19T19:48:54.090Z,2.10
2018-03-19T19:51:21.615Z,2.10
2018-03-19T19:53:49.078Z,2.10
2018-03-19T19:56:16.545Z,2.10
2018-03-19T19:58:44.028Z,2.10
2018-03-19T20:01:12.610Z,1.90
2018-03-19T20:03:40.036Z,1.90
2018-03-19T20:06:07.552Z,1.80
2018-03-19T20:08:34.976Z,1.80
2018-03-19T20:11:02.481Z,1.70
2018-03-19T20:13:29.894Z,1.70
2018-03-19T20:15:57.319Z,1.70
2018-03-19T20:18:24.742Z,1.70
2018-03-19T20:20:53.665Z,1.60
2018-03-19T20:23:21.084Z,1.60
2018-03-19T20:25:48.504Z,1.60
2018-03-19T20:28:15.910Z,1.60
2018-03-19T20:30:43.325Z,1.60
2018-03-19T20:33:10.851Z,1.60
2018-03-19T20:35:38.282Z,1.60
2018-03-19T20:38:05.794Z,1.60
2018-03-19T20:40:33.253Z,1.60
2018-03-19T20:43:00.735Z,1.60
2018-03-19T20:45:28.152Z,1.60
2018-03-19T20:47:55.554Z,1.60
2018-03-19T20:50:22.961Z,1.60
2018-03-19T20:52:50.412Z,1.60
2018-03-19T20:55:17.869Z,1.60
2018-03-19T20:57:45.347Z,1.50
2018-03-19T21:00:13.706Z,1.50
2018-03-19T21:02:41.940Z,1.40
2018-03-19T21:05:09.390Z,1.40
2018-03-19T21:07:36.786Z,1.30
2018-03-19T21:10:04.217Z,1.30
2018-03-19T21:12:31.634Z,1.20
2018-03-19T21:14:59.054Z,1.20
2018-03-19T21:17:27.230Z,1.00
2018-03-19T21:19:55.418Z,1.00
2018-03-19T21:22:23.612Z,0.90
2018-03-19T21:24:51.822Z,0.90
2018-03-19T21:27:19.242Z,0.90
2018-03-19T21:29:46.667Z,0.80
2018-03-19T21:32:14.078Z,0.80
2018-03-19T21:34:43.943Z,0.70
2018-03-19T21:37:11.370Z,0.70
2018-03-19T21:39:38.781Z,0.70
2018-03-19T21:42:06.186Z,0.60
2018-03-19T21:44:33.600Z,0.60
2018-03-19T21:47:01.798Z,0.50
2018-03-19T21:49:29.275Z,0.50
2018-03-19T21:51:56.690Z,0.40
2018-03-19T21:54:24.109Z,0.40
2018-03-19T21:56:51.570Z,0.40
2018-03-19T21:59:19.749Z,0.40
2018-03-19T22:01:47.925Z,0.40
2018-03-19T22:04:15.432Z,0.30
2018-03-19T22:06:42.841Z,0.40
2018-03-19T22:09:10.362Z,0.40
2018-03-19T22:11:37.809Z,0.40
2018-03-19T22:14:05.982Z,0.40
2018-03-19T22:16:33.676Z,0.40
2018-03-19T22:19:01.074Z,0.40
2018-03-19T22:21:28.486Z,0.40
2018-03-19T22:23:55.897Z,0.40
2018-03-19T22:26:23.315Z,0.30
2018-03-19T22:28:50.726Z,0.30
2018-03-19T22:31:18.207Z,0.30
2018-03-19T22:33:46.369Z,0.20
2018-03-19T22:36:15.465Z,0.20
2018-03-19T22:38:44.569Z,0.20
2018-03-19T22:41:11.993Z,0.20
2018-03-19T22:43:39.406Z,0.20
2018-03-19T22:46:07.607Z,0.10
2018-03-19T22:48:35.801Z,0.10
2018-03-19T22:51:03.231Z,0.10
2018-03-19T22:53:30.635Z,0.10
2018-03-19T22:55:58.102Z,0.00
2018-03-19T22:58:25.509Z,0.00
2018-03-19T23:00:52.929Z,-0.10
2018-03-19T23:03:21.110Z,-0.10
2018-03-19T23:05:49.295Z,-0.20
2018-03-19T23:08:17.481Z,-0.20
2018-03-19T23:10:46.178Z,-0.30
2018-03-19T23:13:15.317Z,-0.40
2018-03-19T23:15:42.727Z,-0.40
2018-03-19T23:18:10.155Z,-0.40
2018-03-19T23:20:37.561Z,-0.40
2018-03-19T23:23:05.034Z,-0.50
2018-03-19T23:25:32.401Z,-0.50
2018-03-19T23:27:59.832Z,-0.60
2018-03-19T23:30:27.242Z,-0.60
2018-03-19T23:32:54.729Z,-0.60
2018-03-19T23:35:22.909Z,-0.60
2018-03-19T23:37:50.314Z,-0.60
2018-03-19T23:40:17.726Z,-0.60
2018-03-19T23:42:46.080Z,-0.60
2018-03-19T23:45:13.543Z,-0.60
2018-03-19T23:47:41.013Z,-0.60
2018-03-19T23:50:08.419Z,-0.70
2018-03-19T23:52:35.841Z,-0.70
2018-03-19T23:55:03.319Z,-0.80
2018-03-19T23:57:30.875Z,-0.80
2018-03-19T23:59:58.290Z,-0.80
